sensor_id;sensor_type;location;lat;lon;timestamp;temperature;humidity
51029;DHT22;37054;52.054;8.600;2023-04-25T00:01:20;13.00;63.10
51029;DHT22;37054;52.054;8.600;2023-04-25T00:03:47;13.00;63.00
51029;DHT22;37054;52.054;8.600;2023-04-25T00:06:12;13.00;63.10
51029;DHT22;37054;52.054;8.600;2023-04-25T00:08:38;13.00;63.10
51029;DHT22;37054;52.054;8.600;2023-04-25T00:11:03;13.00;63.10
51029;DHT22;37054;52.054;8.600;2023-04-25T00:13:29;13.10;63.10
51029;DHT22;37054;52.054;8.600;2023-04-25T00:15:54;13.20;63.00
51029;DHT22;37054;52.054;8.600;2023-04-25T00:18:21;13.10;62.90
51029;DHT22;37054;52.054;8.600;2023-04-25T00:20:46;13.10;63.00
51029;DHT22;37054;52.054;8.600;2023-04-25T00:23:13;13.00;63.00
51029;DHT22;37054;52.054;8.600;2023-04-25T00:25:45;12.90;63.10
51029;DHT22;37054;52.054;8.600;2023-04-25T00:28:11;12.80;63.20
51029;DHT22;37054;52.054;8.600;2023-04-25T00:30:37;12.80;63.10
51029;DHT22;37054;52.054;8.600;2023-04-25T00:33:03;12.80;63.20
51029;DHT22;37054;52.054;8.600;2023-04-25T00:35:28;12.80;63.20
51029;DHT22;37054;52.054;8.600;2023-04-25T00:37:53;12.80;63.20
51029;DHT22;37054;52.054;8.600;2023-04-25T00:40:20;12.70;63.40
51029;DHT22;37054;52.054;8.600;2023-04-25T00:42:45;12.70;63.40
51029;DHT22;37054;52.054;8.600;2023-04-25T00:45:12;12.70;63.20
51029;DHT22;37054;52.054;8.600;2023-04-25T00:47:39;12.70;63.40
51029;DHT22;37054;52.054;8.600;2023-04-25T00:50:05;12.70;63.40
51029;DHT22;37054;52.054;8.600;2023-04-25T00:52:31;12.70;63.20
51029;DHT22;37054;52.054;8.600;2023-04-25T00:54:56;12.70;63.30
51029;DHT22;37054;52.054;8.600;2023-04-25T00:57:22;12.70;63.30
51029;DHT22;37054;52.054;8.600;2023-04-25T00:59:47;12.70;63.40
51029;DHT22;37054;52.054;8.600;2023-04-25T01:02:13;12.70;63.20
51029;DHT22;37054;52.054;8.600;2023-04-25T01:04:38;12.70;63.30
51029;DHT22;37054;52.054;8.600;2023-04-25T01:07:04;12.70;63.30
51029;DHT22;37054;52.054;8.600;2023-04-25T01:09:30;12.70;63.40
51029;DHT22;37054;52.054;8.600;2023-04-25T01:11:57;12.70;63.50
51029;DHT22;37054;52.054;8.600;2023-04-25T01:14:22;12.70;63.40
51029;DHT22;37054;52.054;8.600;2023-04-25T01:16:48;12.70;63.40
51029;DHT22;37054;52.054;8.600;2023-04-25T01:19:13;12.70;63.40
51029;DHT22;37054;52.054;8.600;2023-04-25T01:21:41;12.70;63.30
51029;DHT22;37054;52.054;8.600;2023-04-25T01:24:06;12.60;63.40
51029;DHT22;37054;52.054;8.600;2023-04-25T01:26:32;12.60;63.50
51029;DHT22;37054;52.054;8.600;2023-04-25T01:28:58;12.60;63.60
51029;DHT22;37054;52.054;8.600;2023-04-25T01:31:24;12.60;63.60
51029;DHT22;37054;52.054;8.600;2023-04-25T01:33:49;12.60;63.70
51029;DHT22;37054;52.054;8.600;2023-04-25T01:36:14;12.50;63.60
51029;DHT22;37054;52.054;8.600;2023-04-25T01:38:40;12.50;63.60
51029;DHT22;37054;52.054;8.600;2023-04-25T01:41:06;12.50;63.70
51029;DHT22;37054;52.054;8.600;2023-04-25T01:43:32;12.50;63.90
51029;DHT22;37054;52.054;8.600;2023-04-25T01:45:57;12.50;64.00
51029;DHT22;37054;52.054;8.600;2023-04-25T01:48:23;12.50;63.90
51029;DHT22;37054;52.054;8.600;2023-04-25T01:50:49;12.50;64.00
51029;DHT22;37054;52.054;8.600;2023-04-25T01:53:14;12.50;63.80
51029;DHT22;37054;52.054;8.600;2023-04-25T01:55:40;12.50;63.90
51029;DHT22;37054;52.054;8.600;2023-04-25T01:58:05;12.50;64.00
51029;DHT22;37054;52.054;8.600;2023-04-25T02:00:35;12.50;64.00
51029;DHT22;37054;52.054;8.600;2023-04-25T02:03:03;12.50;64.10
51029;DHT22;37054;52.054;8.600;2023-04-25T02:05:28;12.50;64.10
51029;DHT22;37054;52.054;8.600;2023-04-25T02:07:58;12.50;64.20
51029;DHT22;37054;52.054;8.600;2023-04-25T02:10:24;12.50;64.10
51029;DHT22;37054;52.054;8.600;2023-04-25T02:12:49;12.50;64.10
51029;DHT22;37054;52.054;8.600;2023-04-25T02:15:15;12.50;64.20
51029;DHT22;37054;52.054;8.600;2023-04-25T02:17:40;12.50;64.20
51029;DHT22;37054;52.054;8.600;2023-04-25T02:20:06;12.60;64.20
51029;DHT22;37054;52.054;8.600;2023-04-25T02:22:31;12.60;64.20
51029;DHT22;37054;52.054;8.600;2023-04-25T02:24:57;12.60;64.20
51029;DHT22;37054;52.054;8.600;2023-04-25T02:27:23;12.60;64.20
51029;DHT22;37054;52.054;8.600;2023-04-25T02:29:48;12.60;64.10
51029;DHT22;37054;52.054;8.600;2023-04-25T02:32:14;12.70;64.20
51029;DHT22;37054;52.054;8.600;2023-04-25T02:34:39;12.60;64.10
51029;DHT22;37054;52.054;8.600;2023-04-25T02:37:04;12.70;64.10
51029;DHT22;37054;52.054;8.600;2023-04-25T02:39:30;12.70;64.00
51029;DHT22;37054;52.054;8.600;2023-04-25T02:41:56;12.70;63.80
51029;DHT22;37054;52.054;8.600;2023-04-25T02:44:21;12.70;63.80
51029;DHT22;37054;52.054;8.600;2023-04-25T02:46:46;12.70;63.80
51029;DHT22;37054;52.054;8.600;2023-04-25T02:49:12;12.70;63.70
51029;DHT22;37054;52.054;8.600;2023-04-25T02:51:37;12.70;63.70
51029;DHT22;37054;52.054;8.600;2023-04-25T02:54:03;12.70;63.80
51029;DHT22;37054;52.054;8.600;2023-04-25T02:56:28;12.80;63.70
51029;DHT22;37054;52.054;8.600;2023-04-25T02:58:54;12.70;63.50
51029;DHT22;37054;52.054;8.600;2023-04-25T03:01:19;12.70;63.60
51029;DHT22;37054;52.054;8.600;2023-04-25T03:03:45;12.70;63.60
51029;DHT22;37054;52.054;8.600;2023-04-25T03:06:11;12.60;63.60
51029;DHT22;37054;52.054;8.600;2023-04-25T03:08:36;12.60;63.70
51029;DHT22;37054;52.054;8.600;2023-04-25T03:11:01;12.60;63.70
51029;DHT22;37054;52.054;8.600;2023-04-25T03:13:27;12.60;63.90
51029;DHT22;37054;52.054;8.600;2023-04-25T03:15:55;12.60;63.80
51029;DHT22;37054;52.054;8.600;2023-04-25T03:18:20;12.60;63.80
51029;DHT22;37054;52.054;8.600;2023-04-25T03:20:46;12.60;63.80
51029;DHT22;37054;52.054;8.600;2023-04-25T03:23:11;12.60;63.70
51029;DHT22;37054;52.054;8.600;2023-04-25T03:25:37;12.50;63.60
51029;DHT22;37054;52.054;8.600;2023-04-25T03:28:02;12.50;63.50
51029;DHT22;37054;52.054;8.600;2023-04-25T03:30:28;12.50;63.50
51029;DHT22;37054;52.054;8.600;2023-04-25T03:32:53;12.50;63.50
51029;DHT22;37054;52.054;8.600;2023-04-25T03:35:19;12.50;63.40
51029;DHT22;37054;52.054;8.600;2023-04-25T03:37:44;12.40;63.50
51029;DHT22;37054;52.054;8.600;2023-04-25T03:40:12;12.40;63.50
51029;DHT22;37054;52.054;8.600;2023-04-25T03:42:38;12.40;63.50
51029;DHT22;37054;52.054;8.600;2023-04-25T03:45:03;12.40;63.50
51029;DHT22;37054;52.054;8.600;2023-04-25T03:47:29;12.50;63.50
51029;DHT22;37054;52.054;8.600;2023-04-25T03:49:54;12.40;63.60
51029;DHT22;37054;52.054;8.600;2023-04-25T03:52:20;12.50;63.50
51029;DHT22;37054;52.054;8.600;2023-04-25T03:54:45;12.50;63.50
51029;DHT22;37054;52.054;8.600;2023-04-25T03:57:11;12.50;63.50
51029;DHT22;37054;52.054;8.600;2023-04-25T03:59:36;12.50;63.40
51029;DHT22;37054;52.054;8.600;2023-04-25T04:02:01;12.60;63.40
51029;DHT22;37054;52.054;8.600;2023-04-25T04:04:27;12.60;63.40
51029;DHT22;37054;52.054;8.600;2023-04-25T04:06:52;12.60;63.40
51029;DHT22;37054;52.054;8.600;2023-04-25T04:09:18;12.60;63.30
51029;DHT22;37054;52.054;8.600;2023-04-25T04:11:44;12.60;63.30
51029;DHT22;37054;52.054;8.600;2023-04-25T04:14:10;12.60;63.20
51029;DHT22;37054;52.054;8.600;2023-04-25T04:16:35;12.60;63.30
51029;DHT22;37054;52.054;8.600;2023-04-25T04:19:02;12.60;63.20
51029;DHT22;37054;52.054;8.600;2023-04-25T04:21:28;12.50;63.10
51029;DHT22;37054;52.054;8.600;2023-04-25T04:23:53;12.50;63.20
51029;DHT22;37054;52.054;8.600;2023-04-25T04:26:20;12.50;63.10
51029;DHT22;37054;52.054;8.600;2023-04-25T04:28:48;12.50;63.10
51029;DHT22;37054;52.054;8.600;2023-04-25T04:31:15;12.40;63.10
51029;DHT22;37054;52.054;8.600;2023-04-25T04:33:41;12.40;63.10
51029;DHT22;37054;52.054;8.600;2023-04-25T04:36:06;12.40;63.00
51029;DHT22;37054;52.054;8.600;2023-04-25T04:38:32;12.40;63.10
51029;DHT22;37054;52.054;8.600;2023-04-25T04:41:01;12.40;63.00
51029;DHT22;37054;52.054;8.600;2023-04-25T04:43:35;12.30;63.10
51029;DHT22;37054;52.054;8.600;2023-04-25T04:46:01;12.30;63.00
51029;DHT22;37054;52.054;8.600;2023-04-25T04:48:28;12.30;63.10
51029;DHT22;37054;52.054;8.600;2023-04-25T04:50:54;12.30;63.10
51029;DHT22;37054;52.054;8.600;2023-04-25T04:53:19;12.40;63.20
51029;DHT22;37054;52.054;8.600;2023-04-25T04:55:45;12.40;63.30
51029;DHT22;37054;52.054;8.600;2023-04-25T04:58:11;12.40;63.30
51029;DHT22;37054;52.054;8.600;2023-04-25T05:00:36;12.40;63.20
51029;DHT22;37054;52.054;8.600;2023-04-25T05:03:02;12.40;63.30
51029;DHT22;37054;52.054;8.600;2023-04-25T05:05:27;12.40;63.30
51029;DHT22;37054;52.054;8.600;2023-04-25T05:07:53;12.50;63.40
51029;DHT22;37054;52.054;8.600;2023-04-25T05:10:18;12.40;63.10
51029;DHT22;37054;52.054;8.600;2023-04-25T05:12:44;12.50;63.30
51029;DHT22;37054;52.054;8.600;2023-04-25T05:15:10;12.40;63.20
51029;DHT22;37054;52.054;8.600;2023-04-25T05:17:35;12.50;63.20
51029;DHT22;37054;52.054;8.600;2023-04-25T05:20:01;12.50;63.20
51029;DHT22;37054;52.054;8.600;2023-04-25T05:22:27;12.50;63.30
51029;DHT22;37054;52.054;8.600;2023-04-25T05:24:53;12.50;63.40
51029;DHT22;37054;52.054;8.600;2023-04-25T05:27:18;12.60;63.50
51029;DHT22;37054;52.054;8.600;2023-04-25T05:29:44;12.70;63.60
51029;DHT22;37054;52.054;8.600;2023-04-25T05:32:09;12.70;63.60
51029;DHT22;37054;52.054;8.600;2023-04-25T05:34:35;12.70;63.70
51029;DHT22;37054;52.054;8.600;2023-04-25T05:37:00;12.80;63.70
51029;DHT22;37054;52.054;8.600;2023-04-25T05:39:26;12.90;63.60
51029;DHT22;37054;52.054;8.600;2023-04-25T05:41:52;12.90;63.50
51029;DHT22;37054;52.054;8.600;2023-04-25T05:44:17;13.00;63.60
51029;DHT22;37054;52.054;8.600;2023-04-25T05:46:43;13.10;63.80
51029;DHT22;37054;52.054;8.600;2023-04-25T05:49:08;13.20;64.00
51029;DHT22;37054;52.054;8.600;2023-04-25T05:51:34;13.30;63.90
51029;DHT22;37054;52.054;8.600;2023-04-25T05:53:59;13.30;63.80
51029;DHT22;37054;52.054;8.600;2023-04-25T05:56:25;13.40;63.80
51029;DHT22;37054;52.054;8.600;2023-04-25T05:58:50;13.50;63.80
51029;DHT22;37054;52.054;8.600;2023-04-25T06:01:16;13.60;63.60
51029;DHT22;37054;52.054;8.600;2023-04-25T06:03:41;13.60;63.50
51029;DHT22;37054;52.054;8.600;2023-04-25T06:06:08;13.70;63.60
51029;DHT22;37054;52.054;8.600;2023-04-25T06:08:34;13.70;63.50
51029;DHT22;37054;52.054;8.600;2023-04-25T06:10:59;13.70;63.60
51029;DHT22;37054;52.054;8.600;2023-04-25T06:13:25;13.80;63.80
51029;DHT22;37054;52.054;8.600;2023-04-25T06:15:51;14.00;63.90
51029;DHT22;37054;52.054;8.600;2023-04-25T06:18:16;14.10;63.90
51029;DHT22;37054;52.054;8.600;2023-04-25T06:20:41;14.20;63.70
51029;DHT22;37054;52.054;8.600;2023-04-25T06:23:07;14.20;63.60
51029;DHT22;37054;52.054;8.600;2023-04-25T06:25:32;14.30;64.00
51029;DHT22;37054;52.054;8.600;2023-04-25T06:27:58;14.40;63.60
51029;DHT22;37054;52.054;8.600;2023-04-25T06:30:23;14.50;63.20
51029;DHT22;37054;52.054;8.600;2023-04-25T06:32:51;14.50;63.30
51029;DHT22;37054;52.054;8.600;2023-04-25T06:35:16;14.60;63.50
51029;DHT22;37054;52.054;8.600;2023-04-25T06:37:42;14.70;63.50
51029;DHT22;37054;52.054;8.600;2023-04-25T06:40:07;14.70;63.20
51029;DHT22;37054;52.054;8.600;2023-04-25T06:42:33;14.80;63.30
51029;DHT22;37054;52.054;8.600;2023-04-25T06:44:58;14.80;62.90
51029;DHT22;37054;52.054;8.600;2023-04-25T06:47:24;14.80;62.80
51029;DHT22;37054;52.054;8.600;2023-04-25T06:49:49;14.90;63.00
51029;DHT22;37054;52.054;8.600;2023-04-25T06:52:15;15.00;63.10
51029;DHT22;37054;52.054;8.600;2023-04-25T06:54:40;15.00;62.80
51029;DHT22;37054;52.054;8.600;2023-04-25T06:57:06;15.00;62.60
51029;DHT22;37054;52.054;8.600;2023-04-25T06:59:31;15.10;62.40
51029;DHT22;37054;52.054;8.600;2023-04-25T07:01:58;15.20;63.10
51029;DHT22;37054;52.054;8.600;2023-04-25T07:04:23;15.30;63.00
51029;DHT22;37054;52.054;8.600;2023-04-25T07:06:48;15.50;63.40
51029;DHT22;37054;52.054;8.600;2023-04-25T07:09:14;15.60;63.20
51029;DHT22;37054;52.054;8.600;2023-04-25T07:11:40;15.70;62.70
51029;DHT22;37054;52.054;8.600;2023-04-25T07:14:05;15.70;62.60
51029;DHT22;37054;52.054;8.600;2023-04-25T07:16:31;15.80;62.70
51029;DHT22;37054;52.054;8.600;2023-04-25T07:18:56;15.80;62.70
51029;DHT22;37054;52.054;8.600;2023-04-25T07:21:21;16.00;62.70
51029;DHT22;37054;52.054;8.600;2023-04-25T07:23:47;16.10;62.90
51029;DHT22;37054;52.054;8.600;2023-04-25T07:26:12;16.20;63.20
51029;DHT22;37054;52.054;8.600;2023-04-25T07:28:38;16.40;62.60
51029;DHT22;37054;52.054;8.600;2023-04-25T07:31:03;16.50;62.30
51029;DHT22;37054;52.054;8.600;2023-04-25T07:33:29;16.50;62.50
51029;DHT22;37054;52.054;8.600;2023-04-25T07:35:54;16.70;63.30
51029;DHT22;37054;52.054;8.600;2023-04-25T07:38:20;16.90;63.60
51029;DHT22;37054;52.054;8.600;2023-04-25T07:40:47;17.20;63.80
51029;DHT22;37054;52.054;8.600;2023-04-25T07:43:12;17.40;63.40
51029;DHT22;37054;52.054;8.600;2023-04-25T07:45:42;17.60;62.40
51029;DHT22;37054;52.054;8.600;2023-04-25T07:48:07;17.70;61.30
51029;DHT22;37054;52.054;8.600;2023-04-25T07:50:33;17.80;61.70
51029;DHT22;37054;52.054;8.600;2023-04-25T07:52:58;17.80;61.80
51029;DHT22;37054;52.054;8.600;2023-04-25T07:55:24;17.90;62.40
51029;DHT22;37054;52.054;8.600;2023-04-25T07:57:49;18.00;61.90
51029;DHT22;37054;52.054;8.600;2023-04-25T08:00:14;18.10;60.70
51029;DHT22;37054;52.054;8.600;2023-04-25T08:02:40;18.10;61.80
51029;DHT22;37054;52.054;8.600;2023-04-25T08:05:05;18.40;63.70
51029;DHT22;37054;52.054;8.600;2023-04-25T08:07:33;18.70;64.20
51029;DHT22;37054;52.054;8.600;2023-04-25T08:09:59;19.20;66.10
51029;DHT22;37054;52.054;8.600;2023-04-25T08:12:24;20.00;67.10
51029;DHT22;37054;52.054;8.600;2023-04-25T08:14:50;20.70;66.40
51029;DHT22;37054;52.054;8.600;2023-04-25T08:17:15;21.40;66.40
51029;DHT22;37054;52.054;8.600;2023-04-25T08:19:41;22.20;66.50
51029;DHT22;37054;52.054;8.600;2023-04-25T08:22:06;22.70;65.30
51029;DHT22;37054;52.054;8.600;2023-04-25T08:24:32;23.10;63.00
51029;DHT22;37054;52.054;8.600;2023-04-25T08:26:58;23.20;61.80
51029;DHT22;37054;52.054;8.600;2023-04-25T08:29:24;23.30;60.80
51029;DHT22;37054;52.054;8.600;2023-04-25T08:31:51;23.30;60.10
51029;DHT22;37054;52.054;8.600;2023-04-25T08:34:18;23.10;59.60
51029;DHT22;37054;52.054;8.600;2023-04-25T08:36:43;23.00;59.10
51029;DHT22;37054;52.054;8.600;2023-04-25T08:39:09;22.90;59.60
51029;DHT22;37054;52.054;8.600;2023-04-25T08:41:36;22.80;58.20
51029;DHT22;37054;52.054;8.600;2023-04-25T08:44:01;22.70;57.90
51029;DHT22;37054;52.054;8.600;2023-04-25T08:46:28;22.70;58.00
51029;DHT22;37054;52.054;8.600;2023-04-25T08:48:53;22.50;56.90
51029;DHT22;37054;52.054;8.600;2023-04-25T08:51:23;22.40;55.40
51029;DHT22;37054;52.054;8.600;2023-04-25T08:53:53;22.40;58.10
51029;DHT22;37054;52.054;8.600;2023-04-25T08:56:18;22.50;58.60
51029;DHT22;37054;52.054;8.600;2023-04-25T08:58:47;22.50;54.00
51029;DHT22;37054;52.054;8.600;2023-04-25T09:01:13;22.50;53.60
51029;DHT22;37054;52.054;8.600;2023-04-25T09:03:38;22.50;54.20
51029;DHT22;37054;52.054;8.600;2023-04-25T09:06:03;22.40;54.80
51029;DHT22;37054;52.054;8.600;2023-04-25T09:08:29;22.50;54.90
51029;DHT22;37054;52.054;8.600;2023-04-25T09:10:55;22.60;55.80
51029;DHT22;37054;52.054;8.600;2023-04-25T09:13:24;22.80;56.40
51029;DHT22;37054;52.054;8.600;2023-04-25T09:15:52;22.90;55.10
51029;DHT22;37054;52.054;8.600;2023-04-25T09:18:27;23.00;55.70
51029;DHT22;37054;52.054;8.600;2023-04-25T09:20:53;23.10;55.00
51029;DHT22;37054;52.054;8.600;2023-04-25T09:23:19;23.30;56.50
51029;DHT22;37054;52.054;8.600;2023-04-25T09:25:49;23.90;53.60
51029;DHT22;37054;52.054;8.600;2023-04-25T09:28:14;24.40;51.40
51029;DHT22;37054;52.054;8.600;2023-04-25T09:30:40;24.80;50.50
51029;DHT22;37054;52.054;8.600;2023-04-25T09:35:35;25.60;48.20
51029;DHT22;37054;52.054;8.600;2023-04-25T09:38:06;25.30;45.50
51029;DHT22;37054;52.054;8.600;2023-04-25T09:40:32;25.00;46.30
51029;DHT22;37054;52.054;8.600;2023-04-25T09:42:57;24.70;45.10
51029;DHT22;37054;52.054;8.600;2023-04-25T09:45:24;24.30;44.00
51029;DHT22;37054;52.054;8.600;2023-04-25T09:47:49;23.90;43.70
51029;DHT22;37054;52.054;8.600;2023-04-25T09:50:16;23.30;40.10
51029;DHT22;37054;52.054;8.600;2023-04-25T09:52:42;22.70;42.00
51029;DHT22;37054;52.054;8.600;2023-04-25T09:55:08;22.30;43.50
51029;DHT22;37054;52.054;8.600;2023-04-25T09:57:33;21.90;45.00
51029;DHT22;37054;52.054;8.600;2023-04-25T10:00:00;21.60;44.00
51029;DHT22;37054;52.054;8.600;2023-04-25T10:02:26;21.30;44.70
51029;DHT22;37054;52.054;8.600;2023-04-25T10:04:55;21.10;44.90
51029;DHT22;37054;52.054;8.600;2023-04-25T10:07:24;21.10;45.60
51029;DHT22;37054;52.054;8.600;2023-04-25T10:09:55;21.00;44.40
51029;DHT22;37054;52.054;8.600;2023-04-25T10:12:22;20.80;43.50
51029;DHT22;37054;52.054;8.600;2023-04-25T10:14:47;20.60;42.40
51029;DHT22;37054;52.054;8.600;2023-04-25T10:17:13;20.30;42.70
51029;DHT22;37054;52.054;8.600;2023-04-25T10:19:39;20.20;44.00
51029;DHT22;37054;52.054;8.600;2023-04-25T10:22:11;20.00;44.50
51029;DHT22;37054;52.054;8.600;2023-04-25T10:24:38;20.00;44.80
51029;DHT22;37054;52.054;8.600;2023-04-25T10:27:04;19.90;44.90
51029;DHT22;37054;52.054;8.600;2023-04-25T10:29:30;20.00;45.70
51029;DHT22;37054;52.054;8.600;2023-04-25T10:31:56;20.10;46.30
51029;DHT22;37054;52.054;8.600;2023-04-25T10:34:37;20.30;46.60
51029;DHT22;37054;52.054;8.600;2023-04-25T10:37:04;20.40;46.10
51029;DHT22;37054;52.054;8.600;2023-04-25T10:39:30;20.60;46.10
51029;DHT22;37054;52.054;8.600;2023-04-25T10:41:57;20.80;44.70
51029;DHT22;37054;52.054;8.600;2023-04-25T10:44:29;21.00;44.20
51029;DHT22;37054;52.054;8.600;2023-04-25T10:46:59;21.10;44.10
51029;DHT22;37054;52.054;8.600;2023-04-25T10:49:29;21.40;43.50
51029;DHT22;37054;52.054;8.600;2023-04-25T10:54:46;22.70;42.60
51029;DHT22;37054;52.054;8.600;2023-04-25T11:02:30;24.30;38.20
51029;DHT22;37054;52.054;8.600;2023-04-25T11:04:56;24.20;37.90
51029;DHT22;37054;52.054;8.600;2023-04-25T11:07:38;24.00;37.80
51029;DHT22;37054;52.054;8.600;2023-04-25T11:10:04;23.70;37.80
51029;DHT22;37054;52.054;8.600;2023-04-25T11:12:31;23.40;39.30
51029;DHT22;37054;52.054;8.600;2023-04-25T11:15:00;23.20;40.00
51029;DHT22;37054;52.054;8.600;2023-04-25T11:17:26;23.00;40.10
51029;DHT22;37054;52.054;8.600;2023-04-25T11:19:51;22.70;38.80
51029;DHT22;37054;52.054;8.600;2023-04-25T11:22:17;22.40;38.60
51029;DHT22;37054;52.054;8.600;2023-04-25T11:24:42;22.00;39.80
51029;DHT22;37054;52.054;8.600;2023-04-25T11:27:08;21.40;41.70
51029;DHT22;37054;52.054;8.600;2023-04-25T11:29:34;20.90;43.60
51029;DHT22;37054;52.054;8.600;2023-04-25T11:32:00;20.40;44.10
51029;DHT22;37054;52.054;8.600;2023-04-25T11:34:26;20.20;45.20
51029;DHT22;37054;52.054;8.600;2023-04-25T11:36:52;20.10;46.20
51029;DHT22;37054;52.054;8.600;2023-04-25T11:39:18;20.30;45.70
51029;DHT22;37054;52.054;8.600;2023-04-25T11:41:44;20.60;46.10
51029;DHT22;37054;52.054;8.600;2023-04-25T11:44:09;20.90;45.90
51029;DHT22;37054;52.054;8.600;2023-04-25T11:46:35;21.10;43.30
51029;DHT22;37054;52.054;8.600;2023-04-25T11:49:00;21.10;42.80
51029;DHT22;37054;52.054;8.600;2023-04-25T11:51:26;21.00;42.50
51029;DHT22;37054;52.054;8.600;2023-04-25T11:53:51;20.90;41.70
51029;DHT22;37054;52.054;8.600;2023-04-25T11:56:17;20.70;41.00
51029;DHT22;37054;52.054;8.600;2023-04-25T12:01:29;20.10;42.30
51029;DHT22;37054;52.054;8.600;2023-04-25T12:03:55;19.60;42.80
51029;DHT22;37054;52.054;8.600;2023-04-25T12:06:21;19.20;43.90
51029;DHT22;37054;52.054;8.600;2023-04-25T12:09:04;19.10;44.90
51029;DHT22;37054;52.054;8.600;2023-04-25T12:11:32;19.20;45.50
51029;DHT22;37054;52.054;8.600;2023-04-25T12:14:03;19.40;45.90
51029;DHT22;37054;52.054;8.600;2023-04-25T12:16:39;19.70;45.50
51029;DHT22;37054;52.054;8.600;2023-04-25T12:19:05;20.30;45.30
51029;DHT22;37054;52.054;8.600;2023-04-25T12:21:32;21.20;43.90
51029;DHT22;37054;52.054;8.600;2023-04-25T12:24:09;22.30;42.10
51029;DHT22;37054;52.054;8.600;2023-04-25T12:26:47;23.50;38.90
51029;DHT22;37054;52.054;8.600;2023-04-25T12:29:23;24.60;37.20
51029;DHT22;37054;52.054;8.600;2023-04-25T12:31:49;25.50;35.50
51029;DHT22;37054;52.054;8.600;2023-04-25T12:34:15;25.90;34.50
51029;DHT22;37054;52.054;8.600;2023-04-25T12:36:41;25.80;33.50
51029;DHT22;37054;52.054;8.600;2023-04-25T12:39:06;25.60;33.10
51029;DHT22;37054;52.054;8.600;2023-04-25T12:41:32;25.50;33.40
51029;DHT22;37054;52.054;8.600;2023-04-25T12:43:58;25.90;32.60
51029;DHT22;37054;52.054;8.600;2023-04-25T12:46:23;26.80;32.20
51029;DHT22;37054;52.054;8.600;2023-04-25T12:48:48;27.70;30.50
51029;DHT22;37054;52.054;8.600;2023-04-25T12:51:14;28.30;28.80
51029;DHT22;37054;52.054;8.600;2023-04-25T12:53:40;28.90;28.40
51029;DHT22;37054;52.054;8.600;2023-04-25T12:56:08;29.30;27.60
51029;DHT22;37054;52.054;8.600;2023-04-25T12:58:34;29.20;27.50
51029;DHT22;37054;52.054;8.600;2023-04-25T13:00:59;29.60;27.60
51029;DHT22;37054;52.054;8.600;2023-04-25T13:03:25;30.20;26.50
51029;DHT22;37054;52.054;8.600;2023-04-25T13:05:51;30.30;25.20
51029;DHT22;37054;52.054;8.600;2023-04-25T13:08:21;30.10;25.40
51029;DHT22;37054;52.054;8.600;2023-04-25T13:10:47;29.70;25.50
51029;DHT22;37054;52.054;8.600;2023-04-25T13:13:12;29.40;25.20
51029;DHT22;37054;52.054;8.600;2023-04-25T13:15:38;28.60;24.90
51029;DHT22;37054;52.054;8.600;2023-04-25T13:18:03;27.70;24.70
51029;DHT22;37054;52.054;8.600;2023-04-25T13:20:30;26.70;25.20
51029;DHT22;37054;52.054;8.600;2023-04-25T13:22:56;25.80;27.20
51029;DHT22;37054;52.054;8.600;2023-04-25T13:25:22;24.50;30.90
51029;DHT22;37054;52.054;8.600;2023-04-25T13:27:47;22.70;36.70
51029;DHT22;37054;52.054;8.600;2023-04-25T13:30:13;20.80;40.70
51029;DHT22;37054;52.054;8.600;2023-04-25T13:32:38;19.70;44.90
51029;DHT22;37054;52.054;8.600;2023-04-25T13:35:04;18.70;45.90
51029;DHT22;37054;52.054;8.600;2023-04-25T13:37:30;17.90;47.80
51029;DHT22;37054;52.054;8.600;2023-04-25T13:39:58;17.30;48.00
51029;DHT22;37054;52.054;8.600;2023-04-25T13:42:24;16.60;50.00
51029;DHT22;37054;52.054;8.600;2023-04-25T13:44:51;16.30;51.80
51029;DHT22;37054;52.054;8.600;2023-04-25T13:47:17;16.20;53.70
51029;DHT22;37054;52.054;8.600;2023-04-25T13:49:42;16.10;54.50
51029;DHT22;37054;52.054;8.600;2023-04-25T13:52:07;16.00;55.80
51029;DHT22;37054;52.054;8.600;2023-04-25T13:54:33;16.30;57.50
51029;DHT22;37054;52.054;8.600;2023-04-25T13:56:58;16.70;58.60
51029;DHT22;37054;52.054;8.600;2023-04-25T13:59:24;17.30;58.80
51029;DHT22;37054;52.054;8.600;2023-04-25T14:01:51;18.00;57.50
51029;DHT22;37054;52.054;8.600;2023-04-25T14:04:16;18.30;57.30
51029;DHT22;37054;52.054;8.600;2023-04-25T14:06:41;18.40;56.50
51029;DHT22;37054;52.054;8.600;2023-04-25T14:09:07;18.30;56.50
51029;DHT22;37054;52.054;8.600;2023-04-25T14:11:38;18.30;56.70
51029;DHT22;37054;52.054;8.600;2023-04-25T14:14:03;18.10;57.20
51029;DHT22;37054;52.054;8.600;2023-04-25T14:16:29;17.80;56.70
51029;DHT22;37054;52.054;8.600;2023-04-25T14:18:55;17.70;57.40
51029;DHT22;37054;52.054;8.600;2023-04-25T14:21:21;17.50;57.80
51029;DHT22;37054;52.054;8.600;2023-04-25T14:23:46;17.50;58.90
51029;DHT22;37054;52.054;8.600;2023-04-25T14:26:12;17.60;59.30
51029;DHT22;37054;52.054;8.600;2023-04-25T14:28:38;17.70;59.80
51029;DHT22;37054;52.054;8.600;2023-04-25T14:31:03;18.00;60.60
51029;DHT22;37054;52.054;8.600;2023-04-25T14:33:29;18.20;59.60
51029;DHT22;37054;52.054;8.600;2023-04-25T14:35:55;18.30;58.80
51029;DHT22;37054;52.054;8.600;2023-04-25T14:38:21;18.50;57.30
51029;DHT22;37054;52.054;8.600;2023-04-25T14:40:51;18.40;57.10
51029;DHT22;37054;52.054;8.600;2023-04-25T14:43:17;18.50;55.80
51029;DHT22;37054;52.054;8.600;2023-04-25T14:45:42;18.30;52.30
51029;DHT22;37054;52.054;8.600;2023-04-25T14:48:07;18.10;51.00
51029;DHT22;37054;52.054;8.600;2023-04-25T14:50:33;17.90;52.00
51029;DHT22;37054;52.054;8.600;2023-04-25T14:52:59;17.90;53.50
51029;DHT22;37054;52.054;8.600;2023-04-25T14:55:28;17.80;54.20
51029;DHT22;37054;52.054;8.600;2023-04-25T14:57:54;17.80;53.50
51029;DHT22;37054;52.054;8.600;2023-04-25T15:00:20;17.70;54.10
51029;DHT22;37054;52.054;8.600;2023-04-25T15:02:50;17.70;54.20
51029;DHT22;37054;52.054;8.600;2023-04-25T15:05:15;17.60;55.60
51029;DHT22;37054;52.054;8.600;2023-04-25T15:07:41;17.60;56.00
51029;DHT22;37054;52.054;8.600;2023-04-25T15:10:07;17.60;55.50
51029;DHT22;37054;52.054;8.600;2023-04-25T15:12:38;17.60;53.20
51029;DHT22;37054;52.054;8.600;2023-04-25T15:15:04;17.40;51.70
51029;DHT22;37054;52.054;8.600;2023-04-25T15:17:31;17.30;50.50
51029;DHT22;37054;52.054;8.600;2023-04-25T15:19:56;17.00;48.40
51029;DHT22;37054;52.054;8.600;2023-04-25T15:22:22;16.90;49.90
51029;DHT22;37054;52.054;8.600;2023-04-25T15:24:47;16.90;51.20
51029;DHT22;37054;52.054;8.600;2023-04-25T15:27:13;16.80;49.40
51029;DHT22;37054;52.054;8.600;2023-04-25T15:29:38;16.80;50.80
51029;DHT22;37054;52.054;8.600;2023-04-25T15:32:04;16.80;52.30
51029;DHT22;37054;52.054;8.600;2023-04-25T15:34:29;16.80;52.40
51029;DHT22;37054;52.054;8.600;2023-04-25T15:36:55;16.90;51.70